Time;durP1;ratioP1;P1;durP2;ratioP2;P2;SDS_P1;SDS_P2;PMS_P1;PMS_P2;Temp;Humidity;BMP_temperature;BMP_pressure;BME280_temperature;BME280_humidity;BME280_pressure;Samples;Min_cycle;Max_cycle;Signal;HPM_P1;HPM_P2
2021/12/20 00:01:31;;;;;;;25.90;16.73;;;6.10;99.90;;;5.25;100.00;102106.38;4105381;28;20403;-66
2021/12/20 00:03:32;;;;;;;28.52;16.85;;;6.20;99.90;;;5.40;100.00;102113.31;4105617;28;20043;-66
2021/12/20 00:05:33;;;;;;;26.95;17.38;;;6.10;99.90;;;5.29;100.00;102100.00;4120061;28;20073;-66
2021/12/20 00:07:34;;;;;;;28.63;17.52;;;6.10;99.90;;;5.24;100.00;102099.44;4103976;28;20039;-66
2021/12/20 00:09:35;;;;;;;29.42;16.70;;;6.10;99.90;;;5.22;100.00;102106.53;4105369;28;20023;-66
2021/12/20 00:11:36;;;;;;;29.33;17.42;;;6.10;99.90;;;5.19;100.00;102098.03;4105072;28;20046;-66
2021/12/20 00:13:36;;;;;;;27.83;16.98;;;6.10;99.90;;;5.04;100.00;102115.44;4120173;28;20023;-66
2021/12/20 00:15:37;;;;;;;31.33;19.67;;;6.00;99.90;;;5.13;100.00;102117.53;4105292;28;20480;-66
2021/12/20 00:17:38;;;;;;;28.77;17.75;;;6.00;99.90;;;5.16;100.00;102116.50;4103953;28;20031;-66
2021/12/20 00:19:39;;;;;;;26.33;18.02;;;6.00;99.90;;;5.08;100.00;102111.69;4105115;29;20087;-66
2021/12/20 00:21:40;;;;;;;30.13;18.30;;;6.00;99.90;;;5.08;100.00;102111.69;4105109;28;20038;-66
2021/12/20 00:23:41;;;;;;;30.23;18.85;;;6.00;99.90;;;5.07;100.00;102109.19;4105191;28;20027;-66
2021/12/20 00:25:48;;;;;;;27.98;18.15;;;5.90;99.90;;;5.09;100.00;102115.16;4105110;28;20487;-66
2021/12/20 00:27:49;;;;;;;28.83;18.48;;;6.10;99.90;;;5.02;100.00;102107.66;4104703;28;20105;-65
2021/12/20 00:29:50;;;;;;;29.63;17.20;;;5.90;99.90;;;5.08;100.00;102113.50;4119884;28;20027;-66
2021/12/20 00:31:51;;;;;;;33.33;18.52;;;5.90;99.90;;;5.01;100.00;102106.00;4105019;28;20059;-66
2021/12/20 00:33:52;;;;;;;30.02;19.15;;;5.80;99.90;;;4.95;100.00;102105.50;4119774;28;20015;-66
2021/12/20 00:35:53;;;;;;;28.25;18.23;;;5.80;99.90;;;4.88;100.00;102112.84;4119835;28;20702;-66
2021/12/20 00:40:21;;;;;;;29.58;17.38;;;5.70;99.90;;;4.84;100.00;102106.09;4104863;29;20038;-66
2021/12/20 00:42:22;;;;;;;28.08;17.58;;;5.70;99.90;;;4.81;100.00;102102.78;4118562;28;20028;-66
2021/12/20 00:44:23;;;;;;;29.98;18.23;;;5.70;99.90;;;4.82;100.00;102110.56;4119520;28;20522;-66
2021/12/20 00:46:23;;;;;;;30.00;17.80;;;5.70;99.90;;;4.84;100.00;102107.84;4097481;28;20027;-66
2021/12/20 00:48:24;;;;;;;29.15;18.58;;;5.60;99.90;;;4.68;100.00;102097.44;4104783;28;20035;-66
2021/12/20 00:50:27;;;;;;;29.55;20.05;;;5.60;99.90;;;4.70;100.00;102100.78;4104591;28;20023;-65
2021/12/20 00:52:28;;;;;;;28.75;18.17;;;5.60;99.90;;;4.58;100.00;102095.41;4119531;28;20042;-65
2021/12/20 00:54:29;;;;;;;29.23;17.83;;;5.60;99.90;;;4.66;100.00;102088.00;4119419;28;20119;-66
2021/12/20 00:56:29;;;;;;;31.05;17.55;;;5.60;99.90;;;4.57;100.00;102085.88;4104383;28;20447;-66
2021/12/20 00:58:30;;;;;;;28.20;18.23;;;5.60;99.90;;;4.68;100.00;102081.75;4104469;28;20042;-66
2021/12/20 01:00:40;;;;;;;31.25;18.75;;;5.60;99.90;;;4.57;100.00;102083.28;4119429;28;20038;-65
2021/12/20 01:02:41;;;;;;;29.50;18.50;;;5.60;99.90;;;4.66;100.00;102077.53;4119222;28;20513;-66
2021/12/20 01:04:42;;;;;;;27.77;17.52;;;5.50;99.90;;;4.75;100.00;102087.47;4119407;28;20034;-66
2021/12/20 01:06:43;;;;;;;28.50;18.20;;;5.50;99.90;;;4.75;100.00;102082.25;4104051;28;20524;-66
2021/12/20 01:08:45;;;;;;;28.60;18.80;;;5.50;99.90;;;4.69;100.00;102077.38;4104532;28;20031;-66
2021/12/20 01:10:53;;;;;;;32.72;19.50;;;5.60;99.90;;;4.81;100.00;102081.88;4119321;28;20177;-66
2021/12/20 01:12:55;;;;;;;28.20;17.75;;;5.50;99.90;;;4.77;100.00;102075.16;4102819;28;20558;-66
2021/12/20 01:15:01;;;;;;;29.55;17.90;;;5.60;99.90;;;4.79;100.00;102078.53;4119381;28;20023;-65
2021/12/20 01:17:05;;;;;;;31.00;19.55;;;5.60;99.90;;;4.72;100.00;102078.03;4118741;28;20034;-67
2021/12/20 01:19:06;;;;;;;30.98;18.88;;;5.60;99.90;;;4.77;100.00;102077.78;4118303;28;20027;-66
2021/12/20 01:21:08;;;;;;;29.92;17.98;;;5.60;99.90;;;4.82;100.00;102081.81;4104091;28;20027;-66
2021/12/20 01:23:11;;;;;;;32.47;20.05;;;5.60;99.90;;;4.78;100.00;102084.69;4104334;28;20560;-66
2021/12/20 01:25:13;;;;;;;30.52;18.15;;;5.70;99.90;;;4.75;100.00;102077.03;4104161;28;20035;-66
2021/12/20 01:27:14;;;;;;;33.03;19.85;;;5.60;99.90;;;4.82;100.00;102084.44;4118664;28;20058;-66
2021/12/20 01:29:15;;;;;;;35.67;20.80;;;5.70;99.90;;;4.79;100.00;102078.53;4118868;28;20027;-66
2021/12/20 01:31:16;;;;;;;31.60;19.23;;;5.60;99.90;;;4.77;100.00;102076.00;4119059;28;20514;-66
2021/12/20 01:33:18;;;;;;;34.47;20.95;;;5.60;99.90;;;4.84;100.00;102074.72;4104134;28;20038;-66
2021/12/20 01:35:23;;;;;;;31.98;19.60;;;5.60;99.90;;;4.80;100.00;102067.16;4102815;28;20031;-66
2021/12/20 01:37:24;;;;;;;35.45;20.95;;;5.70;99.90;;;4.91;100.00;102075.22;4118509;28;20031;-66
2021/12/20 01:39:25;;;;;;;32.90;19.98;;;5.70;99.90;;;4.89;100.00;102070.09;4118986;28;20521;-66
2021/12/20 01:41:26;;;;;;;33.25;20.65;;;5.70;99.90;;;4.86;100.00;102061.56;4103819;28;20067;-66
2021/12/20 01:43:27;;;;;;;35.58;20.83;;;5.80;99.90;;;4.84;100.00;102066.03;4102701;28;20078;-66
2021/12/20 01:45:29;;;;;;;36.53;21.10;;;5.70;99.90;;;4.81;100.00;102058.34;4103857;28;20039;-66
2021/12/20 01:47:34;;;;;;;35.17;20.65;;;5.70;99.90;;;4.75;100.00;102058.72;4118792;28;20035;-65
2021/12/20 01:49:43;;;;;;;35.65;20.50;;;5.60;99.90;;;4.74;100.00;102062.25;4118155;28;20038;-66
2021/12/20 01:54:00;;;;;;;32.42;19.77;;;5.60;99.90;;;4.90;100.00;102065.69;4117400;28;20069;-66
2021/12/20 01:56:01;;;;;;;34.55;21.27;;;5.80;99.90;;;4.79;100.00;102058.47;4118741;28;20033;-66
2021/12/20 01:58:02;;;;;;;35.92;21.98;;;5.90;99.90;;;4.75;100.00;102056.13;4103667;28;20114;-65
2021/12/20 02:00:11;;;;;;;34.40;20.95;;;5.70;99.90;;;4.78;100.00;102055.94;4118541;28;20119;-66
2021/12/20 02:02:12;;;;;;;34.20;20.27;;;5.60;99.90;;;4.77;100.00;102057.72;4118576;28;20510;-66
2021/12/20 02:04:14;;;;;;;34.08;21.75;;;5.70;99.90;;;4.82;100.00;102052.22;4103889;29;20041;-66
2021/12/20 02:06:39;;;;;;;38.67;21.35;;;5.60;99.90;;;4.68;100.00;102044.31;4103697;28;20559;-66
2021/12/20 02:08:37;;;;;;;31.90;19.92;;;5.60;99.90;;;4.71;100.00;102058.06;4104793;28;20043;-66
2021/12/20 02:10:39;;;;;;;33.95;20.70;;;5.50;99.90;;;4.76;100.00;102042.09;4118640;28;20031;-66
2021/12/20 02:12:39;;;;;;;32.63;20.50;;;5.60;99.90;;;4.75;100.00;102053.50;4118408;28;20085;-66
2021/12/20 02:14:40;;;;;;;34.85;20.23;;;5.60;99.90;;;4.83;100.00;102049.53;4118395;28;20477;-66
2021/12/20 02:16:43;;;;;;;36.92;22.17;;;5.60;99.90;;;4.79;100.00;102062.84;4118702;28;20444;-66
2021/12/20 02:18:44;;;;;;;34.00;20.77;;;5.70;99.90;;;4.72;100.00;102064.13;4118504;28;20023;-65
2021/12/20 02:20:45;;;;;;;40.20;22.63;;;5.60;99.90;;;4.82;100.00;102053.06;4118515;28;20109;-65
2021/12/20 02:22:46;;;;;;;35.90;21.65;;;5.70;99.90;;;4.73;100.00;102063.19;4103557;28;20060;-65
2021/12/20 02:24:46;;;;;;;34.88;21.10;;;5.60;99.90;;;4.73;100.00;102052.72;4103841;29;20024;-66
2021/12/20 02:26:50;;;;;;;35.30;20.75;;;5.60;99.90;;;4.83;100.00;102051.28;4103404;28;20031;-65
2021/12/20 02:28:54;;;;;;;34.17;21.97;;;5.60;99.90;;;4.88;100.00;102057.09;4118557;28;20031;-65
2021/12/20 02:36:57;;;;;;;40.20;22.70;;;5.70;99.90;;;4.87;100.00;102050.16;4119449;28;20038;-66
2021/12/20 02:38:18;;;;;;;36.92;21.05;;;5.70;99.90;;;4.93;100.00;102055.03;4117450;28;20126;-66
2021/12/20 02:40:21;;;;;;;36.42;22.30;;;5.70;99.90;;;4.91;100.00;102055.16;4105478;29;20082;-65
2021/12/20 02:42:27;;;;;;;32.90;21.15;;;5.70;99.90;;;4.92;100.00;102045.53;4120967;28;20062;-66
2021/12/20 02:44:29;;;;;;;35.40;22.25;;;5.70;99.90;;;4.90;100.00;102055.22;4106789;29;20501;-66
2021/12/20 02:48:38;;;;;;;36.42;21.92;;;5.80;99.90;;;4.77;100.00;102054.25;4121482;28;20027;-67
2021/12/20 02:50:39;;;;;;;34.85;21.42;;;5.70;99.90;;;4.67;100.00;102048.69;4106764;28;20098;-67
2021/12/20 02:52:41;;;;;;;33.53;20.80;;;5.60;99.90;;;4.59;100.00;102044.81;4106678;28;20023;-66
2021/12/20 02:54:42;;;;;;;35.33;22.13;;;5.60;99.90;;;4.59;100.00;102037.00;4121409;28;20034;-66
2021/12/20 02:56:43;;;;;;;34.22;21.73;;;5.60;99.90;;;4.67;100.00;102046.09;4106209;29;20031;-66
2021/12/20 02:58:44;;;;;;;37.40;23.00;;;5.50;99.90;;;4.62;100.00;102034.19;4121395;28;20089;-66
2021/12/20 03:00:45;;;;;;;34.20;21.58;;;5.60;99.90;;;4.76;100.00;102042.09;4121402;28;20422;-66
2021/12/20 03:02:46;;;;;;;34.67;21.60;;;5.60;99.90;;;4.74;100.00;102028.28;4106529;28;20034;-66
2021/12/20 03:04:47;;;;;;;34.58;20.63;;;5.60;99.90;;;4.80;100.00;102033.16;4106238;29;20067;-65
2021/12/20 03:07:01;;;;;;;40.55;23.02;;;5.60;99.90;;;4.87;100.00;102030.09;4106126;28;20138;-65
2021/12/20 03:09:05;;;;;;;33.50;20.48;;;5.60;99.90;;;4.80;100.00;102030.56;4121016;28;20526;-65
2021/12/20 03:11:06;;;;;;;28.60;16.67;;;5.70;99.90;;;4.89;100.00;102027.41;4106320;28;20042;-65
2021/12/20 03:13:07;;;;;;;38.13;22.70;;;5.60;99.90;;;4.82;100.00;102026.91;4120968;28;20029;-65
2021/12/20 03:15:14;;;;;;;34.53;21.90;;;5.60;99.90;;;4.83;100.00;102017.31;4121119;28;20110;-66
2021/12/20 03:17:15;;;;;;;33.00;22.33;;;5.70;99.90;;;4.83;100.00;102012.06;4120459;28;20023;-66
2021/12/20 03:19:16;;;;;;;36.60;22.45;;;5.70;99.90;;;4.86;100.00;102012.75;4104766;28;20507;-66
2021/12/20 03:21:17;;;;;;;35.28;21.30;;;5.70;99.90;;;4.76;100.00;102001.13;4104743;29;20110;-66
2021/12/20 03:23:18;;;;;;;38.00;22.35;;;5.70;99.90;;;4.85;100.00;102005.81;4106148;28;20027;-66
2021/12/20 03:25:21;;;;;;;38.00;22.23;;;5.70;99.90;;;4.89;100.00;102001.25;4106065;29;20035;-66
2021/12/20 03:27:22;;;;;;;37.25;21.92;;;5.70;99.90;;;4.79;100.00;101992.25;4105670;29;20036;-66
2021/12/20 03:29:23;;;;;;;37.10;22.13;;;5.70;99.90;;;4.79;100.00;101990.50;4105878;29;20027;-66
2021/12/20 03:31:24;;;;;;;36.15;22.65;;;5.60;99.90;;;4.89;100.00;101988.19;4120633;28;20185;-66
2021/12/20 03:33:25;;;;;;;39.00;21.48;;;5.70;99.90;;;4.85;100.00;101991.91;4105904;28;20538;-66
2021/12/20 03:35:26;;;;;;;36.58;21.80;;;5.70;99.90;;;4.82;100.00;101984.25;4120708;28;20486;-66
2021/12/20 03:37:27;;;;;;;37.67;21.45;;;5.60;99.90;;;4.77;100.00;101983.69;4120461;28;20023;-66
2021/12/20 03:39:28;;;;;;;40.13;23.73;;;5.70;99.90;;;4.75;100.00;101985.53;4094985;29;20044;-66
2021/12/20 03:41:28;;;;;;;37.90;21.73;;;5.60;99.90;;;4.77;100.00;101986.28;4105002;28;20581;-66
2021/12/20 03:43:31;;;;;;;42.05;24.05;;;5.60;99.90;;;4.65;100.00;101968.69;4105836;28;20035;-66
2021/12/20 03:45:33;;;;;;;42.47;23.20;;;5.60;99.90;;;4.76;100.00;101972.38;4105693;28;20103;-66
2021/12/20 03:47:34;;;;;;;36.63;22.92;;;5.60;99.90;;;4.81;100.00;101974.69;4120505;28;20046;-66
2021/12/20 03:49:35;;;;;;;40.75;22.63;;;5.70;99.90;;;4.80;100.00;101973.88;4105704;28;20023;-66
2021/12/20 03:51:37;;;;;;;37.08;21.60;;;5.70;99.90;;;4.80;100.00;101981.72;4120527;28;20027;-66
2021/12/20 03:53:38;;;;;;;45.10;24.02;;;5.70;99.90;;;4.84;100.00;101974.53;4105568;28;20059;-65
2021/12/20 03:55:39;;;;;;;37.75;22.17;;;5.70;99.90;;;4.85;100.00;101971.84;4105691;28;20091;-66
2021/12/20 03:57:40;;;;;;;38.92;22.90;;;5.70;99.90;;;4.70;100.00;101964.88;4120254;28;20054;-65
2021/12/20 03:59:41;;;;;;;36.28;20.88;;;5.70;99.90;;;4.77;100.00;101970.59;4120526;28;20030;-66
2021/12/20 04:01:42;;;;;;;35.63;21.02;;;5.90;99.90;;;4.84;100.00;101978.00;4120414;28;20035;-66
2021/12/20 04:03:43;;;;;;;41.47;23.98;;;5.60;99.90;;;4.87;100.00;101977.81;4120415;28;20031;-65
2021/12/20 04:05:44;;;;;;;38.55;23.05;;;5.70;99.90;;;4.80;100.00;101965.19;4105393;28;20515;-66
2021/12/20 04:07:45;;;;;;;37.42;22.73;;;5.60;99.90;;;4.89;100.00;101969.91;4105371;29;20093;-65
2021/12/20 04:09:46;;;;;;;42.20;22.67;;;5.70;99.90;;;4.81;100.00;101972.94;4105290;28;20063;-65
2021/12/20 04:11:47;;;;;;;40.15;21.77;;;5.60;99.90;;;4.84;100.00;101971.91;4120038;28;20033;-65
2021/12/20 04:13:48;;;;;;;39.17;23.33;;;5.70;99.90;;;4.83;100.00;101975.47;4105423;28;20034;-65
2021/12/20 04:15:48;;;;;;;41.60;23.35;;;5.60;99.90;;;4.73;100.00;101958.63;4105387;28;20054;-65
2021/12/20 04:17:49;;;;;;;40.95;24.20;;;5.70;99.90;;;4.70;100.00;101958.81;4120029;28;20030;-66
2021/12/20 04:19:50;;;;;;;43.28;22.55;;;5.60;99.90;;;4.66;100.00;101962.56;4105405;28;20506;-65
2021/12/20 04:21:51;;;;;;;40.72;22.75;;;5.60;99.90;;;4.65;100.00;101964.31;4103967;28;20031;-65
2021/12/20 04:23:52;;;;;;;43.60;24.15;;;5.60;99.90;;;4.75;100.00;101962.84;4088144;28;20024;-65
2021/12/20 04:25:53;;;;;;;39.20;22.10;;;5.60;99.90;;;4.73;100.00;101956.03;4105122;29;20066;-66
2021/12/20 04:27:54;;;;;;;42.25;24.27;;;5.60;99.90;;;4.76;100.00;101964.53;4103561;28;20388;-66
2021/12/20 04:29:55;;;;;;;43.13;23.25;;;5.60;99.90;;;4.76;100.00;101969.75;4119846;28;20057;-65
2021/12/20 04:31:56;;;;;;;39.33;21.65;;;5.60;99.90;;;4.72;100.00;101962.19;4129314;28;20030;-65
2021/12/20 04:33:57;;;;;;;34.85;19.73;;;5.70;99.90;;;4.81;100.00;101975.56;4135816;28;20029;-65
2021/12/20 04:35:58;;;;;;;37.58;21.42;;;5.60;99.90;;;4.83;100.00;101975.47;4105028;28;20086;-66
2021/12/20 04:38:01;;;;;;;35.17;21.00;;;5.70;99.90;;;4.93;100.00;101967.00;4103800;28;20134;-65
2021/12/20 04:40:07;;;;;;;36.42;21.90;;;5.70;99.90;;;4.93;100.00;101966.16;4097162;29;20037;-66
2021/12/20 04:42:08;;;;;;;33.80;19.65;;;5.70;99.90;;;4.95;100.00;101967.78;4104486;29;20027;-66
2021/12/20 04:44:09;;;;;;;33.75;20.55;;;5.70;99.90;;;4.89;100.00;101969.91;4104896;29;20113;-66
2021/12/20 04:46:10;;;;;;;32.58;20.05;;;5.80;99.90;;;4.82;100.00;101965.94;4119586;28;20030;-66
2021/12/20 04:48:11;;;;;;;31.52;18.88;;;4.20;99.90;;;4.84;100.00;101982.38;4104788;28;20099;-66
2021/12/20 04:50:13;;;;;;;31.83;19.17;;;5.80;99.90;;;4.80;100.00;101979.13;4104650;28;20034;-66
2021/12/20 04:52:14;;;;;;;35.17;20.92;;;5.70;99.90;;;4.91;100.00;101968.88;4119688;28;20027;-66
2021/12/20 04:54:15;;;;;;;33.65;19.52;;;5.70;99.90;;;4.86;100.00;101975.31;4103938;28;20118;-66
2021/12/20 04:56:16;;;;;;;33.22;17.20;;;5.80;99.90;;;4.92;100.00;101972.31;4104439;29;20034;-66
2021/12/20 04:58:17;;;;;;;32.80;18.65;;;5.70;99.90;;;4.97;100.00;101980.72;4119463;28;20463;-66
2021/12/20 05:00:22;;;;;;;32.97;19.30;;;5.80;99.90;;;5.02;100.00;101965.59;4104702;28;20118;-66
2021/12/20 05:02:23;;;;;;;32.50;18.00;;;5.80;99.90;;;4.97;100.00;101967.66;4104307;28;20039;-66
2021/12/20 05:04:24;;;;;;;32.58;18.40;;;5.80;99.90;;;4.98;100.00;101966.75;4104670;28;20117;-66
2021/12/20 05:06:25;;;;;;;31.75;19.35;;;5.80;99.90;;;4.96;100.00;101963.34;4119060;28;20039;-65
2021/12/20 05:08:34;;;;;;;31.92;19.05;;;5.90;99.90;;;4.92;100.00;101954.88;4122889;28;20058;-65
2021/12/20 05:10:38;;;;;;;33.03;20.48;;;5.80;99.90;;;4.79;100.00;101951.28;4104409;28;20553;-66
2021/12/20 05:12:40;;;;;;;28.10;17.98;;;5.80;99.90;;;4.83;100.00;101958.03;4118768;28;20453;-66
2021/12/20 05:14:45;;;;;;;30.65;17.85;;;5.70;99.90;;;5.02;100.00;101961.22;4104266;28;20042;-66
2021/12/20 05:16:45;;;;;;;;;;;5.80;99.90;;;4.98;100.00;101964.97;4104915;28;20033;-66
2021/12/20 05:18:48;;;;;;;32.92;18.30;;;5.80;99.90;;;5.00;100.00;101963.09;4104402;28;19914;-66
2021/12/20 05:20:48;;;;;;;31.33;19.27;;;5.80;99.90;;;4.92;100.00;101964.50;4104410;28;20499;-66
2021/12/20 05:22:50;;;;;;;31.90;17.88;;;5.80;99.90;;;5.05;100.00;101964.63;4104143;28;20029;-66
2021/12/20 05:24:51;;;;;;;30.85;19.45;;;5.90;99.90;;;5.10;100.00;101980.88;4119217;28;20038;-65
2021/12/20 05:26:52;;;;;;;31.92;19.67;;;5.90;99.90;;;5.06;100.00;101977.59;4103980;28;20510;-65
2021/12/20 05:28:55;;;;;;;31.85;18.15;;;5.90;99.90;;;5.07;100.00;101974.03;4104317;29;20042;-66
2021/12/20 05:30:56;;;;;;;28.80;18.13;;;5.90;99.90;;;5.08;100.00;101967.03;4104126;28;20015;-66
2021/12/20 05:32:57;;;;;;;33.30;19.65;;;5.90;99.90;;;5.10;100.00;101970.41;4102969;28;20027;-66
2021/12/20 05:34:58;;;;;;;31.23;18.15;;;5.90;99.90;;;5.03;100.00;101964.69;4104290;28;20047;-66
2021/12/20 05:36:59;;;;;;;30.65;18.27;;;5.70;99.90;;;5.13;100.00;101968.44;4118986;28;20474;-66
2021/12/20 05:39:00;;;;;;;31.30;17.77;;;5.90;99.90;;;5.13;100.00;101968.44;4118846;28;20073;-66
2021/12/20 05:41:01;;;;;;;30.42;18.02;;;5.90;99.90;;;5.10;100.00;101975.63;4104230;28;20046;-65
2021/12/20 05:43:04;;;;;;;31.95;18.60;;;5.90;99.90;;;5.10;100.00;101973.03;4118609;28;20030;-66
2021/12/20 05:45:06;;;;;;;31.75;17.95;;;5.90;99.90;;;5.20;100.00;101958.44;4118781;28;20030;-65
2021/12/20 05:47:07;;;;;;;29.85;17.90;;;5.90;99.90;;;5.16;100.00;101959.56;4118688;28;20027;-65
2021/12/20 05:49:08;;;;;;;30.27;18.55;;;6.70;99.90;;;5.21;100.00;101971.44;4104133;28;20154;-65
2021/12/20 05:51:09;;;;;;;30.38;17.67;;;6.00;99.90;;;5.25;100.00;101969.50;4118905;28;20023;-66
2021/12/20 05:53:10;;;;;;;33.80;18.08;;;6.10;99.90;;;5.20;100.00;101969.75;4118801;28;20037;-66
2021/12/20 05:55:11;;;;;;;31.17;17.83;;;6.00;99.90;;;5.29;100.00;101974.44;4118677;28;20019;-66
2021/12/20 05:57:12;;;;;;;33.42;19.52;;;6.00;99.90;;;5.09;100.00;101971.31;4103777;28;20043;-65
2021/12/20 05:59:13;;;;;;;28.85;17.05;;;6.00;99.90;;;5.17;100.00;101977.78;4118828;28;20027;-66
2021/12/20 06:01:14;;;;;;;30.30;18.63;;;6.00;99.90;;;5.10;100.00;101973.88;4104052;28;20039;-65
2021/12/20 06:03:15;;;;;;;29.67;18.75;;;6.30;99.90;;;5.20;100.00;101976.75;4103901;29;20027;-66
2021/12/20 06:05:16;;;;;;;35.88;17.85;;;6.00;99.90;;;5.29;100.00;101969.19;4118327;28;20106;-66
2021/12/20 06:07:19;;;;;;;30.55;19.08;;;6.10;99.90;;;5.29;100.00;101973.59;4103810;28;20058;-66
2021/12/20 06:09:20;;;;;;;32.83;19.45;;;6.00;99.90;;;5.20;100.00;101964.53;4103878;28;20034;-66
2021/12/20 06:11:21;;;;;;;32.85;18.77;;;6.00;99.90;;;5.22;100.00;101967.91;4118228;28;20438;-66
2021/12/20 06:13:22;;;;;;;30.67;17.88;;;6.00;99.90;;;5.23;100.00;101969.56;4102420;28;20019;-66
2021/12/20 06:15:23;;;;;;;30.90;18.17;;;6.00;99.90;;;5.33;100.00;101973.31;4103896;28;20022;-66
2021/12/20 06:17:24;;;;;;;30.65;17.58;;;6.00;99.90;;;5.23;100.00;101977.41;4103747;28;20077;-66
2021/12/20 06:19:26;;;;;;;29.85;18.42;;;6.00;99.90;;;5.21;100.00;101981.06;4118423;28;20107;-65
2021/12/20 06:21:27;;;;;;;30.13;17.77;;;6.50;99.90;;;5.20;100.00;101981.97;4118486;28;20062;-66
2021/12/20 06:23:28;;;;;;;30.70;18.52;;;6.00;99.90;;;5.18;100.00;101987.31;4103744;28;20027;-66
2021/12/20 06:25:29;;;;;;;29.42;17.58;;;6.00;99.90;;;5.25;100.00;101999.13;4103686;29;20102;-66
2021/12/20 06:27:30;;;;;;;34.15;19.85;;;6.00;99.90;;;5.28;100.00;101993.69;4103222;28;20403;-66
2021/12/20 06:29:30;;;;;;;30.25;17.92;;;6.00;99.90;;;5.16;100.00;101983.13;4103855;28;20058;-66
2021/12/20 06:31:31;;;;;;;30.70;18.95;;;6.00;99.90;;;5.08;100.00;101982.75;4103420;28;20028;-65
2021/12/20 06:33:32;;;;;;;30.15;17.13;;;6.00;99.90;;;4.99;100.00;101974.47;4103663;29;20094;-65
2021/12/20 06:35:34;;;;;;;31.40;19.27;;;5.90;99.90;;;5.00;100.00;101983.16;4103533;28;20435;-65
2021/12/20 06:37:36;;;;;;;30.85;17.55;;;5.80;99.90;;;4.89;100.00;101991.66;4118480;28;20085;-65
2021/12/20 06:39:37;;;;;;;27.60;16.95;;;5.80;99.90;;;4.85;100.00;101984.91;4118390;28;20029;-65
2021/12/20 06:41:38;;;;;;;29.38;17.42;;;5.80;99.90;;;4.90;100.00;101976.78;4118071;28;20106;-65
2021/12/20 06:43:40;;;;;;;30.65;17.85;;;5.70;99.90;;;4.99;100.00;101976.25;4118246;28;20027;-65
2021/12/20 06:45:41;;;;;;;26.40;16.73;;;5.80;99.90;;;4.98;100.00;101978.06;4118371;28;20042;-66
2021/12/20 06:47:43;;;;;;;29.63;17.33;;;5.80;99.90;;;5.03;100.00;101981.22;4118199;28;20031;-65
2021/12/20 06:49:44;;;;;;;33.15;18.70;;;5.80;99.90;;;4.97;100.00;101980.72;4103474;28;20114;-65
2021/12/20 06:51:45;;;;;;;29.50;17.00;;;5.80;99.90;;;4.94;100.00;101978.31;4103463;28;20451;-66
2021/12/20 06:53:46;;;;;;;26.90;16.15;;;5.80;99.90;;;4.91;100.00;101983.72;4118436;28;20460;-65
2021/12/20 06:55:47;;;;;;;29.95;17.77;;;5.80;99.90;;;5.01;100.00;101979.63;4118268;28;20026;-66
2021/12/20 06:57:48;;;;;;;32.22;19.23;;;5.80;99.90;;;5.05;100.00;101980.31;4128539;28;20117;-66
2021/12/20 06:59:49;;;;;;;28.75;17.58;;;5.80;99.90;;;5.05;100.00;101988.16;4101983;29;20059;-66
2021/12/20 07:01:50;;;;;;;29.77;17.80;;;5.80;99.90;;;5.01;100.00;101985.72;4103536;28;20090;-66
2021/12/20 07:03:51;;;;;;;29.30;18.52;;;5.80;99.90;;;5.05;100.00;101986.34;4118226;28;20031;-66
2021/12/20 07:05:52;;;;;;;30.25;17.50;;;5.80;99.90;;;4.94;100.00;101973.06;4103268;28;20059;-66
2021/12/20 07:07:53;;;;;;;32.60;17.92;;;5.80;99.90;;;4.91;100.00;101987.16;4118067;28;20105;-65
2021/12/20 07:09:54;;;;;;;32.28;18.98;;;5.80;99.90;;;4.75;100.00;101981.13;4118015;28;20510;-66
2021/12/20 07:11:55;;;;;;;28.35;17.75;;;6.00;99.90;;;4.74;100.00;101976.00;4101954;29;20075;-66
2021/12/20 07:13:56;;;;;;;27.52;17.35;;;5.70;99.90;;;4.66;100.00;101962.56;4118133;28;20035;-66
2021/12/20 07:15:57;;;;;;;27.95;18.35;;;5.60;99.90;;;4.71;100.00;101963.97;4103356;28;20062;-66
2021/12/20 07:17:59;;;;;;;28.10;18.27;;;5.60;99.90;;;4.77;100.00;101970.59;4120295;28;20401;-66
2021/12/20 07:20:00;;;;;;;31.55;18.52;;;5.60;99.90;;;4.65;100.00;101977.38;4104846;29;20028;-66
2021/12/20 07:22:00;;;;;;;30.15;17.95;;;5.60;99.90;;;4.79;100.00;101980.03;4106064;28;20090;-66
2021/12/20 07:24:01;;;;;;;29.00;18.20;;;5.60;99.90;;;4.79;100.00;101984.41;4104863;28;20098;-67
2021/12/20 07:26:04;;;;;;;29.13;17.50;;;5.50;99.90;;;4.73;100.00;101990.00;4105940;28;20035;-66
2021/12/20 07:28:06;;;;;;;28.55;18.00;;;5.60;99.90;;;4.69;100.00;101988.50;4106080;29;20455;-66
2021/12/20 07:30:08;;;;;;;29.05;17.58;;;5.70;99.90;;;4.67;100.00;101985.13;4120927;28;20027;-66
2021/12/20 07:32:11;;;;;;;25.60;15.95;;;5.60;99.90;;;4.65;100.00;101987.00;4105951;28;20031;-67
2021/12/20 07:34:12;;;;;;;25.83;16.50;;;5.50;99.90;;;4.73;100.00;101982.16;4105938;28;20162;-66
2021/12/20 07:36:15;;;;;;;29.40;17.10;;;5.60;99.90;;;4.69;100.00;101984.09;4106026;29;20019;-67
2021/12/20 07:38:16;;;;;;;25.43;17.27;;;5.50;99.90;;;4.85;100.00;101984.91;4106907;28;20398;-66
2021/12/20 07:40:17;;;;;;;26.58;17.33;;;5.60;99.90;;;4.79;100.00;101987.03;4121438;28;20109;-66
2021/12/20 07:42:19;;;;;;;25.05;17.90;;;5.60;99.90;;;4.57;100.00;101983.97;4105228;29;20051;-66
2021/12/20 07:44:21;;;;;;;27.52;16.58;;;5.50;99.90;;;4.67;100.00;101993.81;4106846;28;20042;-66
2021/12/20 07:46:22;;;;;;;27.27;16.02;;;5.50;99.90;;;4.69;100.00;101997.16;4121553;28;20026;-66
2021/12/20 07:48:24;;;;;;;25.45;17.02;;;5.50;99.90;;;4.74;100.00;101989.94;4120765;28;20473;-66
2021/12/20 07:50:25;;;;;;;25.58;15.77;;;5.60;99.90;;;4.79;100.00;101993.09;4120461;28;20050;-67
2021/12/20 07:52:26;;;;;;;27.40;17.27;;;5.60;99.90;;;4.90;100.00;101989.84;4120593;28;20533;-67
2021/12/20 07:54:27;;;;;;;27.48;16.75;;;5.60;99.90;;;4.88;100.00;101989.13;4104276;28;20026;-68
2021/12/20 07:56:28;;;;;;;24.77;15.68;;;6.40;99.90;;;4.80;100.00;101989.56;4105173;29;20038;-68
2021/12/20 07:58:28;;;;;;;25.00;16.15;;;6.00;99.90;;;4.97;100.00;101993.81;4105412;29;20110;-68
2021/12/20 08:00:29;;;;;;;28.02;16.00;;;5.70;99.90;;;4.73;100.00;101995.22;4104264;29;20093;-68
2021/12/20 08:02:30;;;;;;;24.90;16.70;;;5.70;99.90;;;4.84;100.00;101993.69;4120161;28;20038;-69
2021/12/20 08:04:32;;;;;;;24.00;16.92;;;5.70;99.90;;;4.64;100.00;101990.53;4105511;28;20038;-68
2021/12/20 08:06:33;;;;;;;25.65;15.73;;;5.70;99.90;;;4.65;100.00;101993.06;4103807;29;20078;-69
2021/12/20 08:08:35;;;;;;;27.17;16.85;;;5.70;99.90;;;4.61;100.00;101990.69;4120138;28;20035;-68
2021/12/20 08:10:36;;;;;;;27.58;16.90;;;5.50;99.90;;;4.54;100.00;101999.84;4120170;28;20601;-68
2021/12/20 08:12:37;;;;;;;25.83;16.55;;;5.60;99.90;;;4.50;100.00;102004.38;4104966;28;20039;-68
2021/12/20 08:14:38;;;;;;;28.58;17.85;;;5.50;99.90;;;4.62;100.00;102002.84;4105444;28;20031;-68
2021/12/20 08:16:39;;;;;;;29.05;16.98;;;5.50;99.90;;;4.61;100.00;102015.06;4105467;28;20028;-69
2021/12/20 08:18:42;;;;;;;27.17;16.30;;;5.40;99.90;;;4.62;100.00;102016.75;4105321;29;20099;-68
2021/12/20 08:20:43;;;;;;;26.67;16.55;;;5.50;99.90;;;4.74;100.00;102023.06;4104287;28;20027;-68
2021/12/20 08:22:44;;;;;;;30.67;17.83;;;5.60;99.90;;;4.67;100.00;102026.94;4119898;28;20031;-68
2021/12/20 08:24:45;;;;;;;28.52;17.17;;;6.60;99.90;;;4.68;100.00;102028.63;4105316;28;20480;-68
2021/12/20 08:26:47;;;;;;;25.08;16.20;;;5.50;99.90;;;4.76;100.00;102021.19;4119631;28;20027;-68
2021/12/20 08:28:48;;;;;;;28.50;18.85;;;5.70;99.90;;;4.65;100.00;102013.13;4119829;28;20451;-68
2021/12/20 08:30:49;;;;;;;30.05;18.63;;;5.60;99.90;;;4.50;100.00;102020.06;4119651;28;20030;-68
2021/12/20 08:32:51;;;;;;;28.17;16.80;;;5.60;99.90;;;4.63;100.00;102028.06;4124267;28;20027;-68